sensor_id;sensor_type;location;lat;lon;timestamp;P1;durP1;ratioP1;P2;durP2;ratioP2
17872;SDS011;36318;42.620;23.338;2022-09-09T00:01:17;17.03;;;11.20;;
17872;SDS011;36318;42.620;23.338;2022-09-09T00:03:47;11.07;;;10.00;;
17872;SDS011;36318;42.620;23.338;2022-09-09T00:06:20;11.40;;;10.37;;
17872;SDS011;36318;42.620;23.338;2022-09-09T00:08:50;11.27;;;10.17;;
17872;SDS011;36318;42.620;23.338;2022-09-09T00:11:21;10.47;;;9.53;;
17872;SDS011;36318;42.620;23.338;2022-09-09T00:13:52;10.47;;;9.37;;
17872;SDS011;36318;42.620;23.338;2022-09-09T00:16:21;12.00;;;9.60;;
17872;SDS011;36318;42.620;23.338;2022-09-09T00:18:51;14.73;;;10.00;;
17872;SDS011;36318;42.620;23.338;2022-09-09T00:21:20;11.80;;;8.90;;
17872;SDS011;36318;42.620;23.338;2022-09-09T00:23:50;10.50;;;8.40;;
17872;SDS011;36318;42.620;23.338;2022-09-09T00:26:18;11.27;;;9.87;;
17872;SDS011;36318;42.620;23.338;2022-09-09T00:28:48;8.83;;;7.93;;
17872;SDS011;36318;42.620;23.338;2022-09-09T00:31:20;14.13;;;9.03;;
17872;SDS011;36318;42.620;23.338;2022-09-09T00:33:49;13.40;;;8.77;;
17872;SDS011;36318;42.620;23.338;2022-09-09T00:36:18;9.73;;;8.30;;
17872;SDS011;36318;42.620;23.338;2022-09-09T00:38:48;9.67;;;8.53;;
17872;SDS011;36318;42.620;23.338;2022-09-09T00:41:18;9.93;;;8.73;;
17872;SDS011;36318;42.620;23.338;2022-09-09T00:43:49;12.10;;;8.07;;
17872;SDS011;36318;42.620;23.338;2022-09-09T00:46:25;11.10;;;8.23;;
17872;SDS011;36318;42.620;23.338;2022-09-09T00:48:58;10.00;;;8.17;;
17872;SDS011;36318;42.620;23.338;2022-09-09T00:51:29;10.10;;;7.80;;
17872;SDS011;36318;42.620;23.338;2022-09-09T00:54:07;15.50;;;8.57;;
17872;SDS011;36318;42.620;23.338;2022-09-09T00:56:37;14.20;;;7.67;;
17872;SDS011;36318;42.620;23.338;2022-09-09T00:59:12;16.37;;;8.73;;
17872;SDS011;36318;42.620;23.338;2022-09-09T01:01:43;10.60;;;8.80;;
17872;SDS011;36318;42.620;23.338;2022-09-09T01:04:10;9.47;;;8.37;;
17872;SDS011;36318;42.620;23.338;2022-09-09T01:06:41;9.37;;;8.47;;
17872;SDS011;36318;42.620;23.338;2022-09-09T01:09:13;12.27;;;8.93;;
17872;SDS011;36318;42.620;23.338;2022-09-09T01:11:45;9.93;;;8.37;;
17872;SDS011;36318;42.620;23.338;2022-09-09T01:14:20;9.63;;;8.73;;
17872;SDS011;36318;42.620;23.338;2022-09-09T01:16:50;10.23;;;9.13;;
17872;SDS011;36318;42.620;23.338;2022-09-09T01:19:18;10.10;;;9.13;;
17872;SDS011;36318;42.620;23.338;2022-09-09T01:21:47;10.13;;;9.13;;
17872;SDS011;36318;42.620;23.338;2022-09-09T01:24:19;13.63;;;9.53;;
17872;SDS011;36318;42.620;23.338;2022-09-09T01:26:49;12.90;;;9.93;;
17872;SDS011;36318;42.620;23.338;2022-09-09T01:29:18;11.00;;;10.00;;
17872;SDS011;36318;42.620;23.338;2022-09-09T01:31:51;12.30;;;10.00;;
17872;SDS011;36318;42.620;23.338;2022-09-09T01:34:19;9.80;;;8.97;;
17872;SDS011;36318;42.620;23.338;2022-09-09T01:36:46;10.00;;;9.07;;
17872;SDS011;36318;42.620;23.338;2022-09-09T01:39:15;11.43;;;10.23;;
17872;SDS011;36318;42.620;23.338;2022-09-09T01:41:42;12.80;;;10.13;;
17872;SDS011;36318;42.620;23.338;2022-09-09T01:44:10;12.00;;;9.60;;
17872;SDS011;36318;42.620;23.338;2022-09-09T01:46:37;11.37;;;9.20;;
17872;SDS011;36318;42.620;23.338;2022-09-09T01:49:03;11.50;;;9.80;;
17872;SDS011;36318;42.620;23.338;2022-09-09T01:51:32;13.27;;;11.23;;
17872;SDS011;36318;42.620;23.338;2022-09-09T01:53:58;13.13;;;9.87;;
17872;SDS011;36318;42.620;23.338;2022-09-09T01:56:29;12.47;;;11.20;;
17872;SDS011;36318;42.620;23.338;2022-09-09T01:59:02;12.20;;;10.37;;
17872;SDS011;36318;42.620;23.338;2022-09-09T02:01:35;11.43;;;10.33;;
17872;SDS011;36318;42.620;23.338;2022-09-09T02:04:08;14.33;;;10.13;;
17872;SDS011;36318;42.620;23.338;2022-09-09T02:06:38;12.00;;;10.77;;
17872;SDS011;36318;42.620;23.338;2022-09-09T02:09:05;12.60;;;11.33;;
17872;SDS011;36318;42.620;23.338;2022-09-09T02:11:33;11.93;;;10.70;;
17872;SDS011;36318;42.620;23.338;2022-09-09T02:14:00;12.77;;;10.90;;
17872;SDS011;36318;42.620;23.338;2022-09-09T02:16:28;14.83;;;10.40;;
17872;SDS011;36318;42.620;23.338;2022-09-09T02:19:00;18.17;;;11.50;;
17872;SDS011;36318;42.620;23.338;2022-09-09T02:21:28;13.50;;;12.20;;
17872;SDS011;36318;42.620;23.338;2022-09-09T02:23:55;13.20;;;11.57;;
17872;SDS011;36318;42.620;23.338;2022-09-09T02:26:23;14.20;;;11.63;;
17872;SDS011;36318;42.620;23.338;2022-09-09T02:28:50;13.43;;;11.87;;
17872;SDS011;36318;42.620;23.338;2022-09-09T02:31:17;12.77;;;11.53;;
17872;SDS011;36318;42.620;23.338;2022-09-09T02:33:46;15.83;;;10.87;;
17872;SDS011;36318;42.620;23.338;2022-09-09T02:36:15;12.60;;;11.33;;
17872;SDS011;36318;42.620;23.338;2022-09-09T02:38:45;14.87;;;11.50;;
17872;SDS011;36318;42.620;23.338;2022-09-09T02:41:15;12.77;;;10.50;;
17872;SDS011;36318;42.620;23.338;2022-09-09T02:43:42;12.83;;;10.97;;
17872;SDS011;36318;42.620;23.338;2022-09-09T02:46:11;13.73;;;12.37;;
17872;SDS011;36318;42.620;23.338;2022-09-09T02:48:44;13.87;;;11.30;;
17872;SDS011;36318;42.620;23.338;2022-09-09T02:51:18;13.70;;;12.30;;
17872;SDS011;36318;42.620;23.338;2022-09-09T02:53:47;15.07;;;13.40;;
17872;SDS011;36318;42.620;23.338;2022-09-09T02:56:14;14.60;;;13.17;;
17872;SDS011;36318;42.620;23.338;2022-09-09T02:58:42;15.03;;;12.23;;
17872;SDS011;36318;42.620;23.338;2022-09-09T03:01:08;16.13;;;12.87;;
17872;SDS011;36318;42.620;23.338;2022-09-09T03:03:35;14.80;;;13.17;;
17872;SDS011;36318;42.620;23.338;2022-09-09T03:06:02;16.27;;;13.33;;
17872;SDS011;36318;42.620;23.338;2022-09-09T03:08:30;18.67;;;13.70;;
17872;SDS011;36318;42.620;23.338;2022-09-09T03:10:57;15.30;;;13.87;;
17872;SDS011;36318;42.620;23.338;2022-09-09T03:13:26;16.57;;;13.20;;
17872;SDS011;36318;42.620;23.338;2022-09-09T03:15:53;14.97;;;13.17;;
17872;SDS011;36318;42.620;23.338;2022-09-09T03:18:19;14.93;;;13.33;;
17872;SDS011;36318;42.620;23.338;2022-09-09T03:20:46;15.43;;;13.50;;
17872;SDS011;36318;42.620;23.338;2022-09-09T03:23:13;15.77;;;14.10;;
17872;SDS011;36318;42.620;23.338;2022-09-09T03:25:47;15.17;;;13.67;;
17872;SDS011;36318;42.620;23.338;2022-09-09T03:28:14;16.23;;;14.70;;
17872;SDS011;36318;42.620;23.338;2022-09-09T03:30:40;19.63;;;14.77;;
17872;SDS011;36318;42.620;23.338;2022-09-09T03:33:07;17.53;;;14.20;;
17872;SDS011;36318;42.620;23.338;2022-09-09T03:35:33;17.83;;;14.43;;
17872;SDS011;36318;42.620;23.338;2022-09-09T03:38:00;16.63;;;14.97;;
17872;SDS011;36318;42.620;23.338;2022-09-09T03:40:26;16.37;;;14.77;;
17872;SDS011;36318;42.620;23.338;2022-09-09T03:42:54;16.27;;;14.53;;
17872;SDS011;36318;42.620;23.338;2022-09-09T03:45:21;16.40;;;14.80;;
17872;SDS011;36318;42.620;23.338;2022-09-09T03:47:47;17.80;;;13.67;;
17872;SDS011;36318;42.620;23.338;2022-09-09T03:50:15;15.80;;;14.20;;
17872;SDS011;36318;42.620;23.338;2022-09-09T03:52:41;15.83;;;14.33;;
17872;SDS011;36318;42.620;23.338;2022-09-09T03:55:09;16.23;;;14.03;;
17872;SDS011;36318;42.620;23.338;2022-09-09T03:57:35;14.20;;;12.80;;
17872;SDS011;36318;42.620;23.338;2022-09-09T04:00:04;15.10;;;12.90;;
17872;SDS011;36318;42.620;23.338;2022-09-09T04:02:31;15.80;;;14.20;;
17872;SDS011;36318;42.620;23.338;2022-09-09T04:04:57;13.70;;;12.37;;
17872;SDS011;36318;42.620;23.338;2022-09-09T04:07:24;16.37;;;12.90;;
17872;SDS011;36318;42.620;23.338;2022-09-09T04:09:52;14.13;;;12.60;;
17872;SDS011;36318;42.620;23.338;2022-09-09T04:12:19;17.43;;;12.13;;
17872;SDS011;36318;42.620;23.338;2022-09-09T04:14:47;13.20;;;11.80;;
17872;SDS011;36318;42.620;23.338;2022-09-09T04:17:15;14.50;;;12.40;;
17872;SDS011;36318;42.620;23.338;2022-09-09T04:19:42;14.13;;;12.73;;
17872;SDS011;36318;42.620;23.338;2022-09-09T04:22:09;14.57;;;11.80;;
17872;SDS011;36318;42.620;23.338;2022-09-09T04:24:35;16.30;;;13.17;;
17872;SDS011;36318;42.620;23.338;2022-09-09T04:27:02;13.77;;;12.47;;
17872;SDS011;36318;42.620;23.338;2022-09-09T04:29:28;13.10;;;11.80;;
17872;SDS011;36318;42.620;23.338;2022-09-09T04:31:55;12.90;;;11.53;;
17872;SDS011;36318;42.620;23.338;2022-09-09T04:34:23;12.10;;;10.87;;
17872;SDS011;36318;42.620;23.338;2022-09-09T04:36:50;12.40;;;11.20;;
17872;SDS011;36318;42.620;23.338;2022-09-09T04:39:17;12.30;;;11.10;;
17872;SDS011;36318;42.620;23.338;2022-09-09T04:41:44;12.50;;;10.50;;
17872;SDS011;36318;42.620;23.338;2022-09-09T04:44:12;13.63;;;12.10;;
17872;SDS011;36318;42.620;23.338;2022-09-09T04:46:38;12.23;;;10.93;;
17872;SDS011;36318;42.620;23.338;2022-09-09T04:49:06;12.40;;;11.30;;
17872;SDS011;36318;42.620;23.338;2022-09-09T04:51:34;14.90;;;12.37;;
17872;SDS011;36318;42.620;23.338;2022-09-09T04:54:00;13.80;;;12.50;;
17872;SDS011;36318;42.620;23.338;2022-09-09T04:56:27;14.17;;;12.67;;
17872;SDS011;36318;42.620;23.338;2022-09-09T04:58:53;16.13;;;12.00;;
17872;SDS011;36318;42.620;23.338;2022-09-09T05:01:20;12.93;;;11.63;;
17872;SDS011;36318;42.620;23.338;2022-09-09T05:03:48;15.30;;;11.70;;
17872;SDS011;36318;42.620;23.338;2022-09-09T05:06:16;12.77;;;11.57;;
17872;SDS011;36318;42.620;23.338;2022-09-09T05:08:44;13.90;;;11.50;;
17872;SDS011;36318;42.620;23.338;2022-09-09T05:11:14;14.23;;;11.03;;
17872;SDS011;36318;42.620;23.338;2022-09-09T05:13:42;12.23;;;10.30;;
17872;SDS011;36318;42.620;23.338;2022-09-09T05:16:09;15.10;;;10.63;;
17872;SDS011;36318;42.620;23.338;2022-09-09T05:18:36;14.73;;;10.03;;
17872;SDS011;36318;42.620;23.338;2022-09-09T05:21:02;12.80;;;9.57;;
17872;SDS011;36318;42.620;23.338;2022-09-09T05:23:29;18.93;;;9.93;;
17872;SDS011;36318;42.620;23.338;2022-09-09T05:25:57;12.20;;;10.73;;
17872;SDS011;36318;42.620;23.338;2022-09-09T05:28:24;11.60;;;9.77;;
17872;SDS011;36318;42.620;23.338;2022-09-09T05:30:55;15.40;;;10.83;;
17872;SDS011;36318;42.620;23.338;2022-09-09T05:33:22;11.87;;;9.17;;
17872;SDS011;36318;42.620;23.338;2022-09-09T05:35:54;10.20;;;9.23;;
17872;SDS011;36318;42.620;23.338;2022-09-09T05:38:21;18.07;;;10.90;;
17872;SDS011;36318;42.620;23.338;2022-09-09T05:40:50;15.73;;;11.63;;
17872;SDS011;36318;42.620;23.338;2022-09-09T05:43:18;12.40;;;11.10;;
17872;SDS011;36318;42.620;23.338;2022-09-09T05:45:46;19.10;;;11.43;;
17872;SDS011;36318;42.620;23.338;2022-09-09T05:48:12;12.87;;;11.20;;
17872;SDS011;36318;42.620;23.338;2022-09-09T05:50:40;21.87;;;11.67;;
17872;SDS011;36318;42.620;23.338;2022-09-09T05:53:07;15.30;;;10.93;;
17872;SDS011;36318;42.620;23.338;2022-09-09T05:55:33;19.40;;;11.97;;
17872;SDS011;36318;42.620;23.338;2022-09-09T05:57:59;17.03;;;11.03;;
17872;SDS011;36318;42.620;23.338;2022-09-09T06:00:27;16.43;;;10.53;;
17872;SDS011;36318;42.620;23.338;2022-09-09T06:02:56;16.43;;;11.00;;
17872;SDS011;36318;42.620;23.338;2022-09-09T06:05:23;16.53;;;9.67;;
17872;SDS011;36318;42.620;23.338;2022-09-09T06:07:52;11.07;;;9.30;;
17872;SDS011;36318;42.620;23.338;2022-09-09T06:10:19;12.70;;;8.77;;
17872;SDS011;36318;42.620;23.338;2022-09-09T06:12:45;13.40;;;8.27;;
17872;SDS011;36318;42.620;23.338;2022-09-09T06:15:12;14.83;;;8.43;;
17872;SDS011;36318;42.620;23.338;2022-09-09T06:17:40;12.93;;;7.63;;
17872;SDS011;36318;42.620;23.338;2022-09-09T06:20:07;12.80;;;7.37;;
17872;SDS011;36318;42.620;23.338;2022-09-09T06:22:34;9.67;;;7.40;;
17872;SDS011;36318;42.620;23.338;2022-09-09T06:25:00;14.77;;;8.57;;
17872;SDS011;36318;42.620;23.338;2022-09-09T06:27:27;9.60;;;7.27;;
17872;SDS011;36318;42.620;23.338;2022-09-09T06:29:55;10.50;;;7.30;;
17872;SDS011;36318;42.620;23.338;2022-09-09T06:32:21;17.40;;;7.87;;
17872;SDS011;36318;42.620;23.338;2022-09-09T06:34:49;8.50;;;6.60;;
17872;SDS011;36318;42.620;23.338;2022-09-09T06:37:15;17.97;;;7.50;;
17872;SDS011;36318;42.620;23.338;2022-09-09T06:39:42;14.20;;;6.93;;
17872;SDS011;36318;42.620;23.338;2022-09-09T06:42:08;13.65;;;5.35;;
17872;SDS011;36318;42.620;23.338;2022-09-09T06:44:35;7.40;;;5.85;;
17872;SDS011;36318;42.620;23.338;2022-09-09T06:47:01;9.02;;;5.57;;
17872;SDS011;36318;42.620;23.338;2022-09-09T06:49:28;10.40;;;6.30;;
17872;SDS011;36318;42.620;23.338;2022-09-09T06:51:56;8.68;;;5.45;;
17872;SDS011;36318;42.620;23.338;2022-09-09T06:54:22;9.95;;;5.38;;
17872;SDS011;36318;42.620;23.338;2022-09-09T06:56:50;8.38;;;6.10;;
17872;SDS011;36318;42.620;23.338;2022-09-09T06:59:17;10.68;;;5.50;;
17872;SDS011;36318;42.620;23.338;2022-09-09T07:01:43;9.88;;;5.47;;
17872;SDS011;36318;42.620;23.338;2022-09-09T07:04:12;10.88;;;6.05;;
17872;SDS011;36318;42.620;23.338;2022-09-09T07:06:39;8.32;;;5.57;;
17872;SDS011;36318;42.620;23.338;2022-09-09T07:09:11;16.38;;;6.20;;
17872;SDS011;36318;42.620;23.338;2022-09-09T07:11:38;9.27;;;5.55;;
17872;SDS011;36318;42.620;23.338;2022-09-09T07:14:06;14.27;;;5.85;;
17872;SDS011;36318;42.620;23.338;2022-09-09T07:16:33;9.18;;;5.60;;
17872;SDS011;36318;42.620;23.338;2022-09-09T07:19:02;8.60;;;5.47;;
17872;SDS011;36318;42.620;23.338;2022-09-09T07:21:29;12.80;;;5.32;;
17872;SDS011;36318;42.620;23.338;2022-09-09T07:23:56;11.43;;;5.95;;
17872;SDS011;36318;42.620;23.338;2022-09-09T07:26:25;8.82;;;5.45;;
17872;SDS011;36318;42.620;23.338;2022-09-09T07:28:51;8.35;;;5.93;;
17872;SDS011;36318;42.620;23.338;2022-09-09T07:31:19;10.93;;;5.88;;
17872;SDS011;36318;42.620;23.338;2022-09-09T07:33:46;13.63;;;5.38;;
17872;SDS011;36318;42.620;23.338;2022-09-09T07:36:14;8.57;;;5.60;;
17872;SDS011;36318;42.620;23.338;2022-09-09T07:38:41;9.00;;;5.32;;
17872;SDS011;36318;42.620;23.338;2022-09-09T07:41:09;11.32;;;5.60;;
17872;SDS011;36318;42.620;23.338;2022-09-09T07:43:38;9.75;;;5.38;;
17872;SDS011;36318;42.620;23.338;2022-09-09T07:46:06;8.90;;;5.50;;
17872;SDS011;36318;42.620;23.338;2022-09-09T07:48:33;11.50;;;5.40;;
17872;SDS011;36318;42.620;23.338;2022-09-09T07:51:06;8.32;;;5.10;;
17872;SDS011;36318;42.620;23.338;2022-09-09T07:53:33;7.72;;;5.45;;
17872;SDS011;36318;42.620;23.338;2022-09-09T07:56:04;8.55;;;5.25;;
17872;SDS011;36318;42.620;23.338;2022-09-09T07:58:31;11.02;;;5.80;;
17872;SDS011;36318;42.620;23.338;2022-09-09T08:00:59;8.73;;;5.45;;
17872;SDS011;36318;42.620;23.338;2022-09-09T08:03:26;7.70;;;5.68;;
17872;SDS011;36318;42.620;23.338;2022-09-09T08:05:52;11.45;;;5.82;;
17872;SDS011;36318;42.620;23.338;2022-09-09T08:08:19;10.45;;;5.55;;
17872;SDS011;36318;42.620;23.338;2022-09-09T08:10:45;6.68;;;5.40;;
17872;SDS011;36318;42.620;23.338;2022-09-09T08:13:12;6.63;;;5.78;;
17872;SDS011;36318;42.620;23.338;2022-09-09T08:15:39;8.35;;;5.65;;
17872;SDS011;36318;42.620;23.338;2022-09-09T08:18:08;9.80;;;5.97;;
17872;SDS011;36318;42.620;23.338;2022-09-09T08:20:35;6.97;;;5.20;;
17872;SDS011;36318;42.620;23.338;2022-09-09T08:23:02;9.45;;;5.55;;
17872;SDS011;36318;42.620;23.338;2022-09-09T08:25:30;14.57;;;5.47;;
17872;SDS011;36318;42.620;23.338;2022-09-09T08:27:56;12.48;;;6.10;;
17872;SDS011;36318;42.620;23.338;2022-09-09T08:30:23;8.85;;;5.50;;
17872;SDS011;36318;42.620;23.338;2022-09-09T08:32:50;6.88;;;5.00;;
17872;SDS011;36318;42.620;23.338;2022-09-09T08:35:17;8.65;;;6.20;;
17872;SDS011;36318;42.620;23.338;2022-09-09T08:37:44;11.75;;;5.53;;
17872;SDS011;36318;42.620;23.338;2022-09-09T08:40:11;9.18;;;5.53;;
17872;SDS011;36318;42.620;23.338;2022-09-09T08:42:44;9.48;;;5.72;;
17872;SDS011;36318;42.620;23.338;2022-09-09T08:45:19;8.70;;;6.47;;
17872;SDS011;36318;42.620;23.338;2022-09-09T08:47:50;9.05;;;5.70;;
17872;SDS011;36318;42.620;23.338;2022-09-09T08:50:23;10.70;;;4.93;;
17872;SDS011;36318;42.620;23.338;2022-09-09T08:52:53;8.13;;;5.43;;
17872;SDS011;36318;42.620;23.338;2022-09-09T08:55:24;10.10;;;5.97;;
17872;SDS011;36318;42.620;23.338;2022-09-09T08:57:52;10.35;;;6.38;;
17872;SDS011;36318;42.620;23.338;2022-09-09T09:00:20;12.05;;;6.10;;
17872;SDS011;36318;42.620;23.338;2022-09-09T09:02:48;12.02;;;6.07;;
17872;SDS011;36318;42.620;23.338;2022-09-09T09:05:23;11.82;;;5.57;;
17872;SDS011;36318;42.620;23.338;2022-09-09T09:07:58;9.70;;;5.72;;
17872;SDS011;36318;42.620;23.338;2022-09-09T09:10:32;11.50;;;5.97;;
17872;SDS011;36318;42.620;23.338;2022-09-09T09:13:00;9.57;;;6.18;;
17872;SDS011;36318;42.620;23.338;2022-09-09T09:15:28;7.35;;;5.68;;
17872;SDS011;36318;42.620;23.338;2022-09-09T09:17:56;6.43;;;5.10;;
17872;SDS011;36318;42.620;23.338;2022-09-09T09:20:27;12.40;;;5.68;;
17872;SDS011;36318;42.620;23.338;2022-09-09T09:22:56;8.48;;;5.57;;
17872;SDS011;36318;42.620;23.338;2022-09-09T09:25:26;8.30;;;5.57;;
17872;SDS011;36318;42.620;23.338;2022-09-09T09:27:58;7.68;;;5.05;;
17872;SDS011;36318;42.620;23.338;2022-09-09T09:30:26;9.68;;;5.13;;
17872;SDS011;36318;42.620;23.338;2022-09-09T09:32:55;7.68;;;5.22;;
17872;SDS011;36318;42.620;23.338;2022-09-09T09:35:22;6.03;;;4.47;;
17872;SDS011;36318;42.620;23.338;2022-09-09T09:37:51;6.68;;;5.07;;
17872;SDS011;36318;42.620;23.338;2022-09-09T09:40:18;6.72;;;5.57;;
17872;SDS011;36318;42.620;23.338;2022-09-09T09:42:48;7.10;;;5.63;;
17872;SDS011;36318;42.620;23.338;2022-09-09T09:45:16;12.80;;;6.25;;
17872;SDS011;36318;42.620;23.338;2022-09-09T09:47:45;11.35;;;5.60;;
17872;SDS011;36318;42.620;23.338;2022-09-09T09:50:16;13.90;;;6.22;;
17872;SDS011;36318;42.620;23.338;2022-09-09T09:52:42;7.20;;;5.05;;
17872;SDS011;36318;42.620;23.338;2022-09-09T09:55:20;12.07;;;5.68;;
17872;SDS011;36318;42.620;23.338;2022-09-09T09:57:47;6.28;;;5.13;;
17872;SDS011;36318;42.620;23.338;2022-09-09T10:00:15;10.27;;;6.00;;
17872;SDS011;36318;42.620;23.338;2022-09-09T10:02:43;11.35;;;5.07;;
17872;SDS011;36318;42.620;23.338;2022-09-09T10:05:13;8.10;;;4.90;;
17872;SDS011;36318;42.620;23.338;2022-09-09T10:07:40;9.63;;;5.20;;
17872;SDS011;36318;42.620;23.338;2022-09-09T10:10:09;10.63;;;5.55;;
17872;SDS011;36318;42.620;23.338;2022-09-09T10:12:43;11.07;;;5.60;;
17872;SDS011;36318;42.620;23.338;2022-09-09T10:15:24;7.35;;;5.05;;
17872;SDS011;36318;42.620;23.338;2022-09-09T10:17:54;8.45;;;5.38;;
17872;SDS011;36318;42.620;23.338;2022-09-09T10:20:27;7.15;;;5.32;;
17872;SDS011;36318;42.620;23.338;2022-09-09T10:22:57;7.25;;;5.10;;
17872;SDS011;36318;42.620;23.338;2022-09-09T10:25:39;12.75;;;5.70;;
17872;SDS011;36318;42.620;23.338;2022-09-09T10:28:25;8.05;;;4.88;;
17872;SDS011;36318;42.620;23.338;2022-09-09T10:30:57;6.35;;;5.60;;
17872;SDS011;36318;42.620;23.338;2022-09-09T10:33:30;14.90;;;5.60;;
17872;SDS011;36318;42.620;23.338;2022-09-09T10:36:00;8.98;;;5.70;;
17872;SDS011;36318;42.620;23.338;2022-09-09T10:38:32;13.48;;;5.78;;
17872;SDS011;36318;42.620;23.338;2022-09-09T10:41:07;8.75;;;5.60;;
17872;SDS011;36318;42.620;23.338;2022-09-09T10:43:42;8.88;;;5.63;;
17872;SDS011;36318;42.620;23.338;2022-09-09T10:46:14;12.95;;;5.65;;
17872;SDS011;36318;42.620;23.338;2022-09-09T10:48:46;14.30;;;6.38;;
17872;SDS011;36318;42.620;23.338;2022-09-09T10:51:21;12.20;;;5.70;;
17872;SDS011;36318;42.620;23.338;2022-09-09T10:53:52;11.50;;;5.60;;
17872;SDS011;36318;42.620;23.338;2022-09-09T10:56:20;7.80;;;6.10;;
17872;SDS011;36318;42.620;23.338;2022-09-09T10:58:50;10.45;;;6.30;;
17872;SDS011;36318;42.620;23.338;2022-09-09T11:01:19;11.52;;;5.57;;
17872;SDS011;36318;42.620;23.338;2022-09-09T11:03:51;10.27;;;6.03;;
17872;SDS011;36318;42.620;23.338;2022-09-09T11:06:21;11.40;;;5.82;;
17872;SDS011;36318;42.620;23.338;2022-09-09T11:09:08;9.02;;;5.30;;
17872;SDS011;36318;42.620;23.338;2022-09-09T11:11:43;19.13;;;6.47;;
17872;SDS011;36318;42.620;23.338;2022-09-09T11:14:14;12.83;;;6.27;;
17872;SDS011;36318;42.620;23.338;2022-09-09T11:16:43;8.40;;;6.10;;
17872;SDS011;36318;42.620;23.338;2022-09-09T11:19:33;14.98;;;6.75;;
17872;SDS011;36318;42.620;23.338;2022-09-09T11:22:21;18.13;;;6.87;;
17872;SDS011;36318;42.620;23.338;2022-09-09T11:25:10;9.50;;;5.88;;
17872;SDS011;36318;42.620;23.338;2022-09-09T11:27:42;12.93;;;6.43;;
17872;SDS011;36318;42.620;23.338;2022-09-09T11:30:14;10.80;;;6.55;;
17872;SDS011;36318;42.620;23.338;2022-09-09T11:32:59;10.35;;;6.53;;
17872;SDS011;36318;42.620;23.338;2022-09-09T11:35:31;15.57;;;6.72;;
17872;SDS011;36318;42.620;23.338;2022-09-09T11:38:03;12.88;;;7.35;;
17872;SDS011;36318;42.620;23.338;2022-09-09T11:40:34;11.60;;;6.20;;
17872;SDS011;36318;42.620;23.338;2022-09-09T11:43:01;12.25;;;6.60;;
17872;SDS011;36318;42.620;23.338;2022-09-09T11:45:31;14.80;;;6.78;;
17872;SDS011;36318;42.620;23.338;2022-09-09T11:47:59;11.35;;;6.00;;
17872;SDS011;36318;42.620;23.338;2022-09-09T11:50:30;19.23;;;7.20;;
17872;SDS011;36318;42.620;23.338;2022-09-09T11:53:17;13.63;;;7.82;;
17872;SDS011;36318;42.620;23.338;2022-09-09T11:55:48;15.82;;;6.95;;
17872;SDS011;36318;42.620;23.338;2022-09-09T11:58:25;13.50;;;7.13;;
17872;SDS011;36318;42.620;23.338;2022-09-09T12:00:53;12.93;;;6.65;;
17872;SDS011;36318;42.620;23.338;2022-09-09T12:03:33;14.55;;;6.57;;
17872;SDS011;36318;42.620;23.338;2022-09-09T12:06:08;9.93;;;5.93;;
17872;SDS011;36318;42.620;23.338;2022-09-09T12:08:36;7.85;;;6.18;;
17872;SDS011;36318;42.620;23.338;2022-09-09T12:11:03;13.00;;;6.70;;
17872;SDS011;36318;42.620;23.338;2022-09-09T12:13:29;10.57;;;6.55;;
17872;SDS011;36318;42.620;23.338;2022-09-09T12:15:58;11.05;;;6.45;;
17872;SDS011;36318;42.620;23.338;2022-09-09T12:18:31;11.88;;;6.68;;
17872;SDS011;36318;42.620;23.338;2022-09-09T12:21:02;19.63;;;7.30;;
17872;SDS011;36318;42.620;23.338;2022-09-09T12:23:32;14.23;;;6.43;;
17872;SDS011;36318;42.620;23.338;2022-09-09T12:26:06;15.95;;;7.00;;
17872;SDS011;36318;42.620;23.338;2022-09-09T12:28:40;15.10;;;7.07;;
17872;SDS011;36318;42.620;23.338;2022-09-09T12:31:10;11.98;;;6.53;;
17872;SDS011;36318;42.620;23.338;2022-09-09T12:33:42;11.38;;;7.05;;
17872;SDS011;36318;42.620;23.338;2022-09-09T12:36:11;11.38;;;6.75;;
17872;SDS011;36318;42.620;23.338;2022-09-09T12:38:39;13.40;;;7.13;;
17872;SDS011;36318;42.620;23.338;2022-09-09T12:41:15;14.32;;;7.18;;
17872;SDS011;36318;42.620;23.338;2022-09-09T12:43:44;10.27;;;6.65;;
17872;SDS011;36318;42.620;23.338;2022-09-09T12:46:14;12.85;;;6.68;;
17872;SDS011;36318;42.620;23.338;2022-09-09T12:48:46;11.80;;;6.72;;
17872;SDS011;36318;42.620;23.338;2022-09-09T12:51:17;15.00;;;6.75;;
17872;SDS011;36318;42.620;23.338;2022-09-09T12:53:44;9.15;;;7.03;;
17872;SDS011;36318;42.620;23.338;2022-09-09T12:56:17;10.68;;;6.53;;
17872;SDS011;36318;42.620;23.338;2022-09-09T12:58:45;13.20;;;7.30;;
17872;SDS011;36318;42.620;23.338;2022-09-09T13:01:20;14.23;;;6.53;;
17872;SDS011;36318;42.620;23.338;2022-09-09T13:03:47;12.73;;;6.22;;
17872;SDS011;36318;42.620;23.338;2022-09-09T13:06:18;11.45;;;6.43;;
17872;SDS011;36318;42.620;23.338;2022-09-09T13:08:47;11.60;;;6.82;;
17872;SDS011;36318;42.620;23.338;2022-09-09T13:11:15;9.85;;;6.97;;
17872;SDS011;36318;42.620;23.338;2022-09-09T13:13:42;16.50;;;7.20;;
17872;SDS011;36318;42.620;23.338;2022-09-09T13:16:19;16.15;;;7.50;;
17872;SDS011;36318;42.620;23.338;2022-09-09T13:18:46;11.00;;;7.53;;
17872;SDS011;36318;42.620;23.338;2022-09-09T13:21:13;14.30;;;6.80;;
17872;SDS011;36318;42.620;23.338;2022-09-09T13:23:40;8.85;;;6.97;;
17872;SDS011;36318;42.620;23.338;2022-09-09T13:26:19;13.27;;;7.25;;
17872;SDS011;36318;42.620;23.338;2022-09-09T13:28:47;13.52;;;7.07;;
17872;SDS011;36318;42.620;23.338;2022-09-09T13:31:20;13.95;;;6.65;;
17872;SDS011;36318;42.620;23.338;2022-09-09T13:34:10;10.00;;;6.75;;
17872;SDS011;36318;42.620;23.338;2022-09-09T13:36:38;13.32;;;7.00;;
17872;SDS011;36318;42.620;23.338;2022-09-09T13:39:13;10.75;;;6.03;;
17872;SDS011;36318;42.620;23.338;2022-09-09T13:41:41;8.65;;;6.82;;
17872;SDS011;36318;42.620;23.338;2022-09-09T13:44:14;10.18;;;7.10;;
17872;SDS011;36318;42.620;23.338;2022-09-09T13:47:03;13.40;;;7.20;;
17872;SDS011;36318;42.620;23.338;2022-09-09T13:49:49;12.68;;;7.00;;
17872;SDS011;36318;42.620;23.338;2022-09-09T13:52:16;9.35;;;7.25;;
17872;SDS011;36318;42.620;23.338;2022-09-09T13:54:46;15.82;;;7.07;;
17872;SDS011;36318;42.620;23.338;2022-09-09T13:57:14;8.90;;;7.07;;
17872;SDS011;36318;42.620;23.338;2022-09-09T13:59:42;12.80;;;7.50;;
17872;SDS011;36318;42.620;23.338;2022-09-09T14:02:28;13.50;;;6.57;;
17872;SDS011;36318;42.620;23.338;2022-09-09T14:04:56;20.02;;;7.32;;
17872;SDS011;36318;42.620;23.338;2022-09-09T14:07:22;13.15;;;7.70;;
17872;SDS011;36318;42.620;23.338;2022-09-09T14:09:50;12.18;;;7.15;;
17872;SDS011;36318;42.620;23.338;2022-09-09T14:12:17;13.68;;;7.15;;
17872;SDS011;36318;42.620;23.338;2022-09-09T14:14:44;15.48;;;7.00;;
17872;SDS011;36318;42.620;23.338;2022-09-09T14:17:10;17.60;;;7.10;;
17872;SDS011;36318;42.620;23.338;2022-09-09T14:19:38;15.80;;;7.18;;
17872;SDS011;36318;42.620;23.338;2022-09-09T14:22:04;16.92;;;7.93;;
17872;SDS011;36318;42.620;23.338;2022-09-09T14:24:31;19.30;;;6.88;;
17872;SDS011;36318;42.620;23.338;2022-09-09T14:26:58;23.90;;;7.63;;
17872;SDS011;36318;42.620;23.338;2022-09-09T14:29:24;15.10;;;7.15;;
17872;SDS011;36318;42.620;23.338;2022-09-09T14:31:51;16.85;;;7.63;;
17872;SDS011;36318;42.620;23.338;2022-09-09T14:34:18;12.15;;;7.45;;